createdAt,value
2018-01-04T00:00:19.729Z,9.88
2018-01-04T00:01:19.634Z,9.82
2018-01-04T00:02:19.551Z,9.85
2018-01-04T00:03:19.456Z,9.79
2018-01-04T00:04:19.367Z,9.79
2018-01-04T00:05:19.283Z,9.81
2018-01-04T00:06:19.195Z,9.78
2018-01-04T00:07:19.106Z,9.85
2018-01-04T00:08:19.011Z,9.82
2018-01-04T00:09:18.924Z,9.83
2018-01-04T00:10:18.842Z,9.75
2018-01-04T00:11:18.752Z,9.76
2018-01-04T00:12:18.666Z,9.83
2018-01-04T00:13:18.574Z,9.76
2018-01-04T00:14:18.487Z,9.64
2018-01-04T00:15:18.394Z,9.68
2018-01-04T00:16:18.302Z,9.73
2018-01-04T00:17:18.235Z,9.68
2018-01-04T00:18:18.133Z,9.78
2018-01-04T00:19:18.041Z,9.73
2018-01-04T00:20:17.950Z,9.75
2018-01-04T00:21:17.873Z,9.67
2018-01-04T00:22:17.778Z,9.71
2018-01-04T00:23:17.690Z,9.78
2018-01-04T00:24:17.600Z,9.71
2018-01-04T00:25:17.510Z,9.73
2018-01-04T00:26:17.421Z,9.64
2018-01-04T00:27:17.330Z,9.68
2018-01-04T00:28:17.241Z,9.79
2018-01-04T00:29:17.154Z,9.71
2018-01-04T00:30:17.063Z,9.82
2018-01-04T00:31:16.982Z,9.82
2018-01-04T00:32:16.886Z,9.78
2018-01-04T00:33:16.806Z,9.73
2018-01-04T00:34:16.717Z,9.78
2018-01-04T00:35:16.625Z,9.71
2018-01-04T00:36:16.545Z,9.78
2018-01-04T00:37:16.457Z,9.76
2018-01-04T00:38:16.361Z,9.76
2018-01-04T00:39:16.272Z,9.76
2018-01-04T00:40:16.191Z,9.75
2018-01-04T00:41:16.095Z,9.79
2018-01-04T00:42:16.010Z,9.70
2018-01-04T00:43:15.938Z,9.78
2018-01-04T00:44:15.834Z,9.82
2018-01-04T00:45:15.741Z,9.83
2018-01-04T00:46:15.652Z,9.78
2018-01-04T00:47:15.566Z,9.76
2018-01-04T00:48:15.475Z,9.75
2018-01-04T00:49:15.386Z,9.76
2018-01-04T00:50:15.299Z,9.85
2018-01-04T00:51:15.215Z,9.73
2018-01-04T00:52:15.123Z,9.76
2018-01-04T00:53:15.034Z,9.86
2018-01-04T00:54:14.950Z,9.81
2018-01-04T00:55:14.854Z,9.93
2018-01-04T00:56:14.803Z,9.96
2018-01-04T00:57:14.678Z,9.88
2018-01-04T00:58:14.588Z,9.81
2018-01-04T00:59:14.512Z,9.89
2018-01-04T01:00:14.416Z,9.88
2018-01-04T01:01:14.332Z,9.79
2018-01-04T01:02:14.244Z,9.89
2018-01-04T01:03:14.148Z,9.85
2018-01-04T01:04:14.077Z,9.91
2018-01-04T01:05:13.985Z,9.75
2018-01-04T01:06:13.891Z,9.70
2018-01-04T01:07:13.805Z,9.75
2018-01-04T01:08:13.714Z,9.88
2018-01-04T01:09:13.632Z,9.86
2018-01-04T01:10:13.532Z,9.86
2018-01-04T01:11:13.454Z,9.89
2018-01-04T01:12:13.360Z,9.86
2018-01-04T01:13:13.268Z,9.79
2018-01-04T01:14:13.180Z,9.75
2018-01-04T01:15:13.102Z,9.75
2018-01-04T01:16:13.002Z,9.83
2018-01-04T01:17:12.938Z,9.79
2018-01-04T01:18:12.825Z,9.73
2018-01-04T01:19:12.744Z,9.85
2018-01-04T01:20:12.649Z,9.83
2018-01-04T01:21:12.569Z,9.85
2018-01-04T01:22:12.473Z,9.85
2018-01-04T01:23:12.382Z,9.86
2018-01-04T01:24:12.297Z,9.89
2018-01-04T01:25:12.212Z,9.75
2018-01-04T01:26:12.132Z,9.73
2018-01-04T01:27:12.029Z,9.75
2018-01-04T01:28:11.947Z,9.83
2018-01-04T01:29:11.850Z,9.78
2018-01-04T01:30:11.784Z,9.71
2018-01-04T01:31:11.683Z,9.81
2018-01-04T01:32:11.586Z,9.76
2018-01-04T01:33:11.502Z,9.70
2018-01-04T01:34:11.414Z,9.75
2018-01-04T01:35:11.317Z,9.85
2018-01-04T01:36:11.234Z,9.73
2018-01-04T01:37:11.141Z,9.71
2018-01-04T01:38:11.054Z,9.85
2018-01-04T01:39:10.968Z,9.73
2018-01-04T01:40:10.874Z,9.75
2018-01-04T01:41:10.794Z,9.86
2018-01-04T01:42:10.702Z,9.82
2018-01-04T01:43:10.610Z,9.79
2018-01-04T01:44:10.522Z,9.73
2018-01-04T01:45:10.434Z,9.68
2018-01-04T01:46:10.351Z,9.67
2018-01-04T01:47:10.258Z,9.66
2018-01-04T01:48:10.172Z,9.71
2018-01-04T01:49:10.078Z,9.71
2018-01-04T01:50:09.994Z,9.78
2018-01-04T01:51:09.908Z,9.71
2018-01-04T01:52:09.814Z,9.81
2018-01-04T01:53:09.736Z,9.73
2018-01-04T01:54:09.638Z,9.61
2018-01-04T01:55:09.549Z,9.71
2018-01-04T01:56:09.462Z,9.71
2018-01-04T01:57:09.374Z,9.57
2018-01-04T01:58:09.283Z,9.70
2018-01-04T01:59:09.199Z,9.66
2018-01-04T02:00:09.111Z,9.70
2018-01-04T02:01:09.019Z,9.76
2018-01-04T02:02:08.933Z,9.73
2018-01-04T02:03:08.863Z,9.63
2018-01-04T02:04:08.747Z,9.64
2018-01-04T02:05:08.666Z,9.68
2018-01-04T02:06:08.573Z,9.68
2018-01-04T02:07:08.487Z,9.58
2018-01-04T02:08:08.395Z,9.68
2018-01-04T02:09:08.312Z,9.71
2018-01-04T02:10:08.225Z,9.61
2018-01-04T02:11:08.132Z,9.64
2018-01-04T02:12:08.043Z,9.56
2018-01-04T02:13:07.974Z,9.64
2018-01-04T02:14:07.869Z,9.60
2018-01-04T02:15:07.783Z,9.63
2018-01-04T02:16:07.686Z,9.53
2018-01-04T02:17:07.604Z,9.66
2018-01-04T02:18:07.508Z,9.63
2018-01-04T02:19:07.421Z,9.52
2018-01-04T02:20:07.331Z,9.52
2018-01-04T02:21:07.250Z,9.53
2018-01-04T02:22:07.156Z,9.57
2018-01-04T02:23:07.067Z,9.45
2018-01-04T02:24:06.979Z,9.61
2018-01-04T02:25:06.891Z,9.58
2018-01-04T02:26:06.805Z,9.71
2018-01-04T02:27:06.712Z,9.53
2018-01-04T02:28:06.618Z,9.58
2018-01-04T02:29:06.657Z,9.64
2018-01-04T02:30:06.444Z,9.71
2018-01-04T02:31:06.363Z,9.71
2018-01-04T02:32:06.271Z,9.71
2018-01-04T02:33:06.181Z,9.68
2018-01-04T02:34:06.087Z,9.64
2018-01-04T02:35:06.082Z,9.64
2018-01-04T02:36:06.009Z,9.66
2018-01-04T02:37:05.833Z,9.66
2018-01-04T02:38:05.736Z,9.70
2018-01-04T02:39:05.660Z,9.73
2018-01-04T02:40:05.558Z,9.71
2018-01-04T02:41:05.471Z,9.75
2018-01-04T02:42:05.384Z,9.78
2018-01-04T02:43:05.295Z,9.78
2018-01-04T02:44:05.209Z,9.75
2018-01-04T02:45:05.118Z,9.76
2018-01-04T02:46:05.025Z,9.79
2018-01-04T02:47:04.935Z,9.88
2018-01-04T02:48:04.853Z,9.86
2018-01-04T02:49:04.767Z,9.83
2018-01-04T02:50:04.680Z,9.75
2018-01-04T02:51:04.609Z,9.86
2018-01-04T02:52:04.496Z,9.93
2018-01-04T02:53:04.409Z,9.89
2018-01-04T02:54:04.320Z,9.85
2018-01-04T02:55:04.234Z,9.82
2018-01-04T02:56:04.161Z,9.85
2018-01-04T02:57:04.064Z,9.85
2018-01-04T02:58:03.992Z,9.85
2018-01-04T02:59:03.892Z,9.82
2018-01-04T03:00:03.795Z,9.75
2018-01-04T03:01:03.701Z,9.71
2018-01-04T03:02:03.617Z,9.83
2018-01-04T03:03:03.580Z,9.79
2018-01-04T03:04:03.435Z,9.82
2018-01-04T03:05:03.358Z,9.91
2018-01-04T03:06:03.272Z,9.86
2018-01-04T03:07:03.181Z,9.78
2018-01-04T03:08:03.082Z,9.71
2018-01-04T03:09:03.006Z,9.76
2018-01-04T03:10:02.908Z,9.68
2018-01-04T03:11:02.816Z,9.75
2018-01-04T03:12:02.777Z,9.78
2018-01-04T03:13:02.653Z,9.76
2018-01-04T03:14:02.560Z,9.82
2018-01-04T03:15:02.465Z,9.91
2018-01-04T03:16:02.369Z,9.83
2018-01-04T03:17:02.292Z,9.89
2018-01-04T03:18:02.197Z,9.78
2018-01-04T03:19:02.110Z,9.82
2018-01-04T03:20:02.026Z,9.82
2018-01-04T03:21:01.929Z,9.71
2018-01-04T03:22:01.845Z,9.83
2018-01-04T03:23:01.756Z,9.75
2018-01-04T03:24:01.668Z,9.75
2018-01-04T03:25:01.577Z,9.75
2018-01-04T03:26:01.484Z,9.79
2018-01-04T03:27:01.396Z,9.75
2018-01-04T03:28:01.311Z,9.86
2018-01-04T03:29:01.240Z,9.76
2018-01-04T03:30:01.131Z,9.76
2018-01-04T03:31:01.041Z,9.78
2018-01-04T03:32:00.958Z,9.79
2018-01-04T03:33:00.869Z,9.70
2018-01-04T03:34:00.812Z,9.64
2018-01-04T03:35:00.709Z,9.70
2018-01-04T03:36:00.597Z,9.67
2018-01-04T03:37:00.510Z,9.73
2018-01-04T03:38:00.429Z,9.67
2018-01-04T03:39:00.330Z,9.68
2018-01-04T03:40:00.270Z,9.76
2018-01-04T03:41:00.174Z,9.81
2018-01-04T03:42:00.068Z,9.68
2018-01-04T03:42:59.973Z,9.60
2018-01-04T03:43:59.896Z,9.64
2018-01-04T03:44:59.805Z,9.68
2018-01-04T03:45:59.710Z,9.63
2018-01-04T03:46:59.620Z,9.64
2018-01-04T03:47:59.529Z,9.66
2018-01-04T03:48:59.453Z,9.61
2018-01-04T03:49:59.356Z,9.67
2018-01-04T03:50:59.264Z,9.60
2018-01-04T03:51:59.172Z,9.58
2018-01-04T03:52:59.089Z,9.46
2018-01-04T03:54:00.155Z,9.49
2018-01-04T03:54:58.906Z,9.43
2018-01-04T03:55:58.840Z,9.49
2018-01-04T03:56:58.731Z,9.34
2018-01-04T03:57:58.634Z,9.38
2018-01-04T03:58:58.553Z,9.45
2018-01-04T03:59:58.461Z,9.40
2018-01-04T04:00:58.376Z,9.42
2018-01-04T04:01:58.290Z,9.43
2018-01-04T04:02:58.191Z,9.43
2018-01-04T04:03:58.106Z,9.42
2018-01-04T04:04:58.035Z,9.35
2018-01-04T04:05:57.931Z,9.34
2018-01-04T04:06:57.834Z,9.28
2018-01-04T04:07:57.745Z,9.32
2018-01-04T04:08:57.662Z,9.28
2018-01-04T04:09:57.572Z,9.32
2018-01-04T04:10:57.481Z,9.34
2018-01-04T04:11:57.392Z,9.28
2018-01-04T04:12:57.305Z,9.06
2018-01-04T04:13:57.216Z,9.28
2018-01-04T04:14:57.135Z,9.34
2018-01-04T04:15:57.033Z,9.24
2018-01-04T04:16:56.942Z,9.25
2018-01-04T04:17:56.984Z,9.18
2018-01-04T04:18:56.779Z,9.10
2018-01-04T04:19:56.678Z,9.23
2018-01-04T04:20:56.585Z,9.20
2018-01-04T04:21:56.497Z,9.30
2018-01-04T04:22:56.405Z,9.24
2018-01-04T04:23:56.321Z,9.30
2018-01-04T04:24:56.265Z,9.21
2018-01-04T04:25:56.150Z,9.21
2018-01-04T04:26:56.052Z,9.09
2018-01-04T04:27:55.964Z,9.15
2018-01-04T04:28:55.876Z,9.23
2018-01-04T04:29:55.791Z,9.18
2018-01-04T04:30:55.690Z,9.25
2018-01-04T04:31:55.610Z,9.24
2018-01-04T04:32:55.583Z,8.90
2018-01-04T04:33:55.432Z,8.96
2018-01-04T04:34:55.342Z,8.97
2018-01-04T04:35:55.246Z,8.93
2018-01-04T04:36:55.157Z,8.93
2018-01-04T04:37:55.066Z,9.05
2018-01-04T04:38:54.979Z,9.06
2018-01-04T04:39:54.902Z,9.23
2018-01-04T04:40:54.803Z,9.04
2018-01-04T04:41:54.714Z,9.18
2018-01-04T04:42:54.635Z,9.10
2018-01-04T04:43:54.538Z,8.99
2018-01-04T04:44:54.446Z,9.01
2018-01-04T04:45:54.358Z,8.99
2018-01-04T04:46:54.273Z,8.96
2018-01-04T04:47:54.227Z,8.93
2018-01-04T04:48:54.104Z,8.96
2018-01-04T04:49:54.005Z,8.88
2018-01-04T04:50:53.915Z,9.01
2018-01-04T04:51:53.823Z,8.99
2018-01-04T04:52:53.736Z,8.99
2018-01-04T04:53:53.650Z,8.96
2018-01-04T04:54:53.563Z,8.83
2018-01-04T04:55:53.498Z,8.83
2018-01-04T04:56:53.382Z,8.79
2018-01-04T04:57:53.296Z,8.79
2018-01-04T04:58:53.203Z,8.78
2018-01-04T04:59:53.114Z,8.68
2018-01-04T05:00:53.032Z,8.88
2018-01-04T05:01:52.948Z,8.83
2018-01-04T05:02:52.846Z,8.84
2018-01-04T05:03:52.759Z,8.81
2018-01-04T05:04:52.666Z,8.87
2018-01-04T05:05:52.581Z,8.81
2018-01-04T05:06:52.499Z,8.57
2018-01-04T05:07:52.402Z,8.72
2018-01-04T05:08:52.311Z,8.73
2018-01-04T05:09:52.224Z,8.78
2018-01-04T05:10:52.154Z,8.81
2018-01-04T05:11:52.045Z,8.65
2018-01-04T05:12:51.972Z,8.62
2018-01-04T05:13:52.006Z,8.68
2018-01-04T05:14:51.775Z,8.68
2018-01-04T05:15:51.684Z,8.78
2018-01-04T05:16:51.596Z,8.63
2018-01-04T05:17:51.509Z,8.79
2018-01-04T05:18:51.422Z,8.90
2018-01-04T05:19:51.338Z,8.86
2018-01-04T05:20:51.259Z,8.69
2018-01-04T05:21:51.151Z,8.63
2018-01-04T05:22:51.062Z,8.84
2018-01-04T05:23:50.972Z,8.76
2018-01-04T05:24:50.888Z,8.76
2018-01-04T05:25:50.801Z,8.76
2018-01-04T05:26:50.711Z,8.91
2018-01-04T05:27:50.684Z,8.72
2018-01-04T05:28:50.696Z,8.96
2018-01-04T05:29:50.450Z,8.81
2018-01-04T05:30:50.378Z,8.81
2018-01-04T05:31:50.278Z,8.84
2018-01-04T05:32:50.192Z,8.78
2018-01-04T05:33:50.103Z,8.93
2018-01-04T05:34:50.005Z,8.78
2018-01-04T05:35:49.918Z,8.90
2018-01-04T05:36:49.833Z,8.72
2018-01-04T05:37:49.768Z,8.62
2018-01-04T05:38:49.661Z,8.69
2018-01-04T05:39:49.567Z,8.71
2018-01-04T05:40:49.518Z,8.81
2018-01-04T05:41:49.455Z,8.87
2018-01-04T05:42:49.302Z,8.81
2018-01-04T05:43:49.216Z,8.90
2018-01-04T05:44:49.126Z,8.79
2018-01-04T05:45:49.038Z,8.93
2018-01-04T05:46:48.949Z,9.01
2018-01-04T05:47:48.861Z,9.02
2018-01-04T05:48:48.774Z,9.04
2018-01-04T05:49:48.689Z,8.96
2018-01-04T05:50:48.610Z,8.60
2018-01-04T05:51:48.512Z,8.65
2018-01-04T05:52:48.434Z,8.66
2018-01-04T05:53:48.342Z,8.68
2018-01-04T05:54:48.244Z,8.58
2018-01-04T05:55:48.158Z,8.62
2018-01-04T05:56:48.065Z,8.58
2018-01-04T05:57:47.978Z,8.60
2018-01-04T05:58:47.887Z,8.65
2018-01-04T05:59:47.810Z,8.65
2018-01-04T06:00:47.728Z,8.47
2018-01-04T06:01:47.624Z,8.48
2018-01-04T06:02:47.530Z,8.60
2018-01-04T06:03:47.443Z,8.65
2018-01-04T06:04:47.360Z,8.65
2018-01-04T06:05:47.283Z,8.55
2018-01-04T06:06:47.203Z,8.75
2018-01-04T06:07:47.088Z,8.71
2018-01-04T06:08:47.002Z,8.79
2018-01-04T06:09:46.908Z,8.81
2018-01-04T06:10:46.822Z,8.87
2018-01-04T06:11:46.732Z,8.84
2018-01-04T06:12:46.652Z,8.81
2018-01-04T06:13:46.568Z,8.69
2018-01-04T06:14:46.471Z,8.73
2018-01-04T06:15:46.381Z,8.63
2018-01-04T06:16:46.339Z,8.65
2018-01-04T06:17:46.210Z,8.57
2018-01-04T06:18:46.117Z,8.86
2018-01-04T06:19:46.030Z,8.86
2018-01-04T06:20:46.076Z,8.93
2018-01-04T06:21:45.853Z,8.87
2018-01-04T06:22:45.765Z,8.79
2018-01-04T06:23:45.674Z,8.84
2018-01-04T06:24:45.588Z,8.76
2018-01-04T06:25:45.502Z,8.88
2018-01-04T06:26:45.416Z,8.83
2018-01-04T06:27:45.334Z,8.78
2018-01-04T06:28:45.238Z,8.83
2018-01-04T06:29:45.154Z,8.81
2018-01-04T06:30:45.061Z,8.79
2018-01-04T06:31:44.977Z,8.75
2018-01-04T06:32:44.886Z,8.87
2018-01-04T06:33:44.795Z,8.76
2018-01-04T06:34:44.707Z,8.86
2018-01-04T06:35:44.621Z,8.69
2018-01-04T06:36:44.533Z,8.81
2018-01-04T06:37:44.456Z,8.63
2018-01-04T06:38:44.360Z,8.71
2018-01-04T06:39:44.278Z,8.76
2018-01-04T06:40:44.176Z,8.78
2018-01-04T06:41:44.093Z,8.76
2018-01-04T06:42:44.003Z,8.81
2018-01-04T06:43:43.916Z,8.78
2018-01-04T06:44:43.829Z,8.90
2018-01-04T06:45:43.749Z,8.76
2018-01-04T06:46:43.657Z,8.84
2018-01-04T06:47:43.561Z,8.79
2018-01-04T06:48:43.494Z,9.01
2018-01-04T06:49:43.384Z,8.93
2018-01-04T06:50:43.306Z,8.79
2018-01-04T06:51:43.209Z,8.83
2018-01-04T06:52:43.124Z,8.79
2018-01-04T06:53:43.038Z,8.86
2018-01-04T06:54:42.973Z,8.81
2018-01-04T06:55:42.863Z,8.99
2018-01-04T06:56:42.774Z,9.02
2018-01-04T06:57:42.685Z,8.97
2018-01-04T06:58:42.602Z,8.79
2018-01-04T06:59:42.506Z,8.90
2018-01-04T07:00:42.421Z,8.75
2018-01-04T07:01:42.495Z,8.68
2018-01-04T07:02:42.324Z,8.75
2018-01-04T07:03:42.237Z,8.78
2018-01-04T07:04:42.127Z,8.91
2018-01-04T07:05:41.980Z,8.88
2018-01-04T07:06:41.898Z,8.90
2018-01-04T07:07:41.807Z,8.83
2018-01-04T07:08:41.724Z,8.97
2018-01-04T07:09:41.631Z,8.81
2018-01-04T07:10:41.557Z,8.90
2018-01-04T07:11:41.571Z,8.84
2018-01-04T07:12:41.371Z,8.96
2018-01-04T07:13:41.288Z,9.05
2018-01-04T07:14:41.193Z,9.04
2018-01-04T07:15:41.100Z,9.05
2018-01-04T07:16:41.115Z,8.87
2018-01-04T07:17:40.947Z,8.97
2018-01-04T07:18:40.847Z,8.96
2018-01-04T07:19:40.753Z,9.10
2018-01-04T07:20:40.703Z,9.05
2018-01-04T07:21:40.576Z,9.09
2018-01-04T07:22:40.491Z,9.01
2018-01-04T07:23:40.400Z,8.87
2018-01-04T07:24:40.318Z,8.96
2018-01-04T07:25:40.231Z,8.96
2018-01-04T07:26:40.141Z,9.02
2018-01-04T07:27:40.051Z,9.02
2018-01-04T07:28:39.962Z,9.01
2018-01-04T07:29:39.873Z,8.96
2018-01-04T07:30:39.791Z,8.97
2018-01-04T07:31:39.698Z,8.97
2018-01-04T07:32:39.677Z,9.09
2018-01-04T07:33:39.560Z,8.99
2018-01-04T07:34:39.478Z,8.97
2018-01-04T07:35:39.346Z,8.99
2018-01-04T07:36:39.268Z,9.12
2018-01-04T07:37:39.172Z,9.20
2018-01-04T07:38:39.096Z,9.30
2018-01-04T07:39:38.999Z,9.25
2018-01-04T07:40:38.912Z,9.01
2018-01-04T07:41:38.821Z,8.97
2018-01-04T07:42:38.736Z,9.01
2018-01-04T07:43:38.831Z,9.04
2018-01-04T07:44:38.557Z,9.23
2018-01-04T07:45:38.531Z,9.31
2018-01-04T07:46:38.384Z,9.25
2018-01-04T07:47:38.300Z,9.18
2018-01-04T07:48:38.219Z,9.28
2018-01-04T07:49:38.125Z,9.23
2018-01-04T07:50:38.036Z,9.38
2018-01-04T07:51:38.086Z,9.43
2018-01-04T07:52:37.864Z,9.25
2018-01-04T07:53:37.770Z,9.34
2018-01-04T07:54:37.684Z,9.28
2018-01-04T07:55:37.598Z,9.38
2018-01-04T07:56:37.524Z,9.32
2018-01-04T07:57:37.427Z,9.35
2018-01-04T07:58:37.332Z,9.31
2018-01-04T07:59:37.245Z,9.39
2018-01-04T08:00:37.157Z,9.40
2018-01-04T08:01:37.129Z,9.53
2018-01-04T08:02:36.996Z,9.43
2018-01-04T08:03:36.897Z,9.30
2018-01-04T08:04:36.817Z,9.42
2018-01-04T08:05:36.727Z,9.48
2018-01-04T08:06:36.640Z,9.35
2018-01-04T08:07:36.551Z,9.48
2018-01-04T08:08:36.463Z,9.48
2018-01-04T08:09:36.380Z,9.52
2018-01-04T08:10:36.293Z,9.64
2018-01-04T08:11:36.230Z,9.52
2018-01-04T08:12:36.125Z,9.57
2018-01-04T08:13:36.047Z,9.58
2018-01-04T08:14:35.946Z,9.61
2018-01-04T08:15:35.869Z,9.64
2018-01-04T08:16:35.787Z,9.67
2018-01-04T08:17:35.680Z,9.70
2018-01-04T08:18:35.604Z,9.68
2018-01-04T08:19:35.508Z,9.70
2018-01-04T08:20:35.446Z,9.71
2018-01-04T08:21:35.380Z,9.68
2018-01-04T08:22:35.281Z,9.63
2018-01-04T08:23:35.166Z,9.64
2018-01-04T08:24:35.080Z,9.71
2018-01-04T08:25:34.998Z,9.82
2018-01-04T08:26:34.911Z,9.85
2018-01-04T08:27:34.820Z,9.88
2018-01-04T08:28:34.733Z,9.83
2018-01-04T08:29:34.648Z,9.76
2018-01-04T08:30:34.564Z,9.75
2018-01-04T08:31:34.477Z,9.71
2018-01-04T08:32:34.388Z,9.78
2018-01-04T08:33:34.308Z,9.78
2018-01-04T08:34:34.212Z,9.85
2018-01-04T08:35:34.164Z,9.85
2018-01-04T08:36:34.056Z,9.75
2018-01-04T08:37:33.962Z,9.93
2018-01-04T08:38:33.868Z,9.88
2018-01-04T08:39:33.781Z,9.93
2018-01-04T08:40:33.712Z,9.83
2018-01-04T08:41:33.615Z,9.99
2018-01-04T08:42:33.523Z,10.00
2018-01-04T08:43:33.439Z,9.88
2018-01-04T08:44:33.354Z,9.89
2018-01-04T08:45:33.271Z,9.86
2018-01-04T08:46:33.178Z,9.88
2018-01-04T08:47:33.093Z,9.89
2018-01-04T08:48:33.014Z,9.97
2018-01-04T08:49:32.920Z,9.88
2018-01-04T08:50:32.852Z,9.82
2018-01-04T08:51:32.747Z,9.93
2018-01-04T08:52:32.663Z,9.91
2018-01-04T08:53:32.595Z,10.01
2018-01-04T08:54:32.493Z,9.96
2018-01-04T08:55:32.407Z,9.99
2018-01-04T08:56:32.320Z,9.97
2018-01-04T08:57:32.237Z,10.01
2018-01-04T08:58:32.147Z,10.03
2018-01-04T08:59:32.061Z,9.97
2018-01-04T09:00:31.979Z,9.99
2018-01-04T09:01:31.890Z,9.99
2018-01-04T09:02:31.883Z,10.04
2018-01-04T09:03:31.722Z,10.09
2018-01-04T09:04:31.628Z,10.17
2018-01-04T09:05:31.544Z,10.15
2018-01-04T09:06:31.459Z,10.53
2018-01-04T09:07:31.398Z,10.59
2018-01-04T09:08:31.298Z,10.46
2018-01-04T09:09:31.201Z,10.74
2018-01-04T09:10:31.114Z,10.56
2018-01-04T09:11:31.029Z,10.55
2018-01-04T09:12:30.949Z,10.58
2018-01-04T09:13:30.860Z,10.34
2018-01-04T09:14:30.773Z,10.52
2018-01-04T09:15:30.691Z,10.46
2018-01-04T09:16:30.622Z,10.40
2018-01-04T09:17:30.513Z,10.22
2018-01-04T09:18:30.424Z,10.30
2018-01-04T09:19:30.397Z,10.14
2018-01-04T09:20:30.256Z,10.24
2018-01-04T09:21:30.176Z,10.15
2018-01-04T09:22:30.122Z,10.12
2018-01-04T09:23:30.002Z,10.25
2018-01-04T09:24:29.911Z,10.21
2018-01-04T09:25:29.836Z,10.19
2018-01-04T09:26:29.735Z,10.18
2018-01-04T09:27:29.676Z,10.19
2018-01-04T09:28:29.586Z,10.21
2018-01-04T09:29:29.524Z,10.22
2018-01-04T09:30:29.395Z,10.24
2018-01-04T09:31:29.307Z,10.34
2018-01-04T09:32:29.226Z,10.39
2018-01-04T09:33:29.135Z,10.24
2018-01-04T09:34:29.060Z,10.33
2018-01-04T09:35:28.982Z,10.36
2018-01-04T09:36:28.898Z,10.37
2018-01-04T09:37:28.800Z,10.33
2018-01-04T09:38:28.710Z,10.25
2018-01-04T09:39:28.621Z,10.30
2018-01-04T09:40:28.534Z,10.30
2018-01-04T09:41:28.506Z,10.28
2018-01-04T09:42:28.362Z,10.06
2018-01-04T09:43:28.276Z,10.22
2018-01-04T09:44:28.203Z,10.33
2018-01-04T09:45:28.107Z,10.36
2018-01-04T09:46:28.028Z,10.26
2018-01-04T09:47:27.936Z,10.34
2018-01-04T09:48:27.853Z,10.36
2018-01-04T09:49:27.758Z,10.43
2018-01-04T09:50:27.720Z,10.18
2018-01-04T09:51:27.614Z,10.30
2018-01-04T09:52:27.512Z,10.34
2018-01-04T09:53:27.421Z,10.34
2018-01-04T09:54:27.333Z,10.51
2018-01-04T09:55:27.256Z,10.39
2018-01-04T09:56:27.173Z,10.53
2018-01-04T09:57:27.088Z,10.58
2018-01-04T09:58:26.994Z,10.51
2018-01-04T09:59:26.906Z,10.53
2018-01-04T10:00:26.823Z,10.47
2018-01-04T10:01:26.751Z,10.53
2018-01-04T10:02:26.686Z,10.52
2018-01-04T10:03:26.615Z,10.44
2018-01-04T10:04:26.487Z,10.44
2018-01-04T10:05:26.587Z,10.51
2018-01-04T10:06:26.385Z,10.58
2018-01-04T10:07:26.239Z,10.56
2018-01-04T10:08:26.139Z,10.59
2018-01-04T10:09:26.059Z,10.68
2018-01-04T10:10:26.015Z,10.63
2018-01-04T10:11:25.888Z,10.56
2018-01-04T10:12:25.803Z,10.66
2018-01-04T10:13:25.719Z,10.59
2018-01-04T10:14:25.648Z,10.56
2018-01-04T10:15:25.553Z,10.58
2018-01-04T10:16:25.466Z,10.55
2018-01-04T10:17:25.378Z,10.60
2018-01-04T10:18:25.293Z,10.71
2018-01-04T10:19:25.208Z,10.80
2018-01-04T10:20:25.122Z,10.56
2018-01-04T10:21:25.069Z,10.56
2018-01-04T10:22:25.014Z,10.65
2018-01-04T10:23:24.873Z,10.71
2018-01-04T10:24:24.787Z,10.62
2018-01-04T10:25:24.713Z,10.60
2018-01-04T10:26:24.645Z,10.68
2018-01-04T10:27:24.525Z,10.74
2018-01-04T10:28:24.447Z,10.74
2018-01-04T10:29:24.358Z,10.84
2018-01-04T10:30:24.281Z,10.83
2018-01-04T10:31:24.201Z,10.92
2018-01-04T10:32:24.109Z,10.70
2018-01-04T10:33:24.029Z,10.76
2018-01-04T10:34:23.936Z,10.71
2018-01-04T10:35:23.852Z,10.77
2018-01-04T10:36:23.767Z,10.86
2018-01-04T10:37:23.681Z,10.88
2018-01-04T10:38:23.600Z,10.86
2018-01-04T10:39:23.510Z,10.95
2018-01-04T10:40:23.498Z,10.89
2018-01-04T10:41:23.341Z,10.96
2018-01-04T10:42:23.296Z,10.77
2018-01-04T10:43:23.176Z,10.65
2018-01-04T10:44:23.088Z,10.77
2018-01-04T10:45:23.006Z,10.74
2018-01-04T10:46:22.919Z,10.89
2018-01-04T10:47:22.911Z,11.01
2018-01-04T10:48:22.747Z,11.01
2018-01-04T10:49:22.709Z,10.96
2018-01-04T10:50:22.608Z,11.01
2018-01-04T10:51:22.501Z,10.89
2018-01-04T10:52:22.403Z,11.03
2018-01-04T10:53:22.322Z,11.03
2018-01-04T10:54:22.235Z,11.07
2018-01-04T10:55:22.158Z,11.07
2018-01-04T10:56:22.077Z,11.10
2018-01-04T10:57:22.065Z,11.07
2018-01-04T10:58:21.930Z,11.10
2018-01-04T10:59:22.019Z,11.11
2018-01-04T11:00:21.731Z,11.11
2018-01-04T11:01:21.661Z,11.03
2018-01-04T11:02:21.562Z,11.07
2018-01-04T11:03:21.475Z,11.10
2018-01-04T11:04:21.429Z,11.16
2018-01-04T11:05:21.308Z,11.13
2018-01-04T11:06:21.226Z,11.17
2018-01-04T11:07:21.138Z,11.17
2018-01-04T11:08:21.053Z,11.19
2018-01-04T11:09:20.970Z,11.17
2018-01-04T11:10:20.888Z,11.16
2018-01-04T11:11:20.801Z,11.17
2018-01-04T11:12:20.718Z,11.06
2018-01-04T11:13:20.636Z,11.14
2018-01-04T11:14:20.548Z,11.10
2018-01-04T11:15:20.532Z,11.06
2018-01-04T11:16:20.386Z,11.14
2018-01-04T11:17:20.294Z,11.03
2018-01-04T11:18:20.233Z,11.07
2018-01-04T11:19:20.130Z,11.09
2018-01-04T11:20:20.039Z,11.01
2018-01-04T11:21:19.968Z,11.03
2018-01-04T11:22:19.868Z,11.10
2018-01-04T11:23:19.783Z,11.06
2018-01-04T11:24:19.730Z,10.95
2018-01-04T11:25:19.619Z,11.01
2018-01-04T11:26:19.533Z,10.88
2018-01-04T11:27:19.447Z,10.84
2018-01-04T11:28:19.429Z,10.95
2018-01-04T11:29:19.285Z,10.98
2018-01-04T11:30:19.238Z,10.95
2018-01-04T11:31:19.114Z,10.89
2018-01-04T11:32:19.070Z,10.94
2018-01-04T11:33:18.941Z,10.95
2018-01-04T11:34:18.851Z,11.02
2018-01-04T11:35:18.767Z,11.02
2018-01-04T11:36:18.678Z,11.09
2018-01-04T11:37:18.604Z,11.02
2018-01-04T11:38:18.509Z,10.99
2018-01-04T11:39:18.427Z,11.02
2018-01-04T11:40:18.354Z,11.10
2018-01-04T11:41:18.258Z,11.02
2018-01-04T11:42:18.165Z,11.01
2018-01-04T11:43:18.086Z,10.94
2018-01-04T11:44:18.006Z,10.94
2018-01-04T11:45:17.914Z,10.89
2018-01-04T11:46:17.832Z,11.02
2018-01-04T11:47:17.750Z,11.07
2018-01-04T11:48:17.663Z,10.96
2018-01-04T11:49:17.597Z,11.01
2018-01-04T11:50:17.498Z,10.88
2018-01-04T11:51:17.404Z,10.94
2018-01-04T11:52:17.348Z,10.91
2018-01-04T11:53:17.238Z,10.91
2018-01-04T11:54:17.169Z,10.95
2018-01-04T11:55:17.147Z,10.92
2018-01-04T11:56:17.036Z,10.80
2018-01-04T11:57:16.931Z,10.92
2018-01-04T11:58:16.813Z,10.86
2018-01-04T11:59:16.728Z,10.81
2018-01-04T12:00:16.682Z,10.91
2018-01-04T12:01:16.555Z,10.91
2018-01-04T12:02:16.487Z,10.92
2018-01-04T12:03:16.535Z,10.92
2018-01-04T12:04:16.300Z,10.91
2018-01-04T12:05:16.223Z,10.91
2018-01-04T12:06:16.149Z,10.92
2018-01-04T12:07:16.063Z,10.63
2018-01-04T12:08:15.960Z,10.80
2018-01-04T12:09:15.874Z,10.74
2018-01-04T12:10:15.850Z,10.58
2018-01-04T12:11:15.765Z,10.65
2018-01-04T12:12:15.617Z,10.76
2018-01-04T12:13:15.536Z,10.86
2018-01-04T12:14:15.448Z,10.83
2018-01-04T12:15:15.364Z,11.01
2018-01-04T12:16:15.286Z,10.99
2018-01-04T12:17:15.199Z,10.98
2018-01-04T12:18:15.108Z,10.95
2018-01-04T12:19:15.022Z,10.96
2018-01-04T12:20:14.939Z,11.13
2018-01-04T12:21:14.856Z,11.11
2018-01-04T12:22:14.768Z,11.16
2018-01-04T12:23:14.685Z,11.24
2018-01-04T12:24:14.601Z,11.24
2018-01-04T12:25:14.516Z,11.11
2018-01-04T12:26:14.460Z,11.13
2018-01-04T12:27:14.358Z,11.13
2018-01-04T12:28:14.340Z,11.16
2018-01-04T12:29:14.175Z,11.29
2018-01-04T12:30:14.094Z,11.16
2018-01-04T12:31:14.006Z,11.16
2018-01-04T12:32:13.922Z,11.11
2018-01-04T12:33:13.833Z,11.11
2018-01-04T12:34:13.897Z,11.24
2018-01-04T12:35:13.660Z,11.31
2018-01-04T12:36:13.578Z,11.21
2018-01-04T12:37:13.503Z,11.14
2018-01-04T12:38:13.408Z,11.19
2018-01-04T12:39:13.326Z,11.24
2018-01-04T12:40:13.253Z,11.29
2018-01-04T12:41:13.161Z,11.21
2018-01-04T12:42:13.063Z,11.28
2018-01-04T12:43:12.989Z,11.36
2018-01-04T12:44:12.896Z,11.43
2018-01-04T12:45:12.806Z,11.31
2018-01-04T12:46:12.726Z,11.32
2018-01-04T12:47:12.642Z,11.39
2018-01-04T12:48:12.559Z,11.35
2018-01-04T12:49:12.470Z,11.34
2018-01-04T12:50:12.378Z,11.32
2018-01-04T12:51:12.295Z,11.39
2018-01-04T12:52:12.208Z,11.41
2018-01-04T12:53:12.134Z,11.41
2018-01-04T12:54:12.035Z,11.41
2018-01-04T12:55:11.949Z,11.46
2018-01-04T12:56:11.908Z,11.41
2018-01-04T12:57:11.779Z,11.50
2018-01-04T12:58:11.693Z,11.49
2018-01-04T12:59:11.603Z,11.50
2018-01-04T13:00:11.518Z,11.62
2018-01-04T13:01:11.433Z,11.52
2018-01-04T13:02:11.349Z,11.54
2018-01-04T13:03:11.302Z,11.59
2018-01-04T13:04:11.178Z,12.12
2018-01-04T13:05:11.032Z,12.04
2018-01-04T13:06:10.944Z,11.85
2018-01-04T13:07:10.866Z,11.74
2018-01-04T13:08:10.839Z,11.71
